Time;durP1;ratioP1;P1;durP2;ratioP2;P2;SDS_P1;SDS_P2;PMS_P1;PMS_P2;Temp;Humidity;BMP_temperature;BMP_pressure;BME280_temperature;BME280_humidity;BME280_pressure;Samples;Min_cycle;Max_cycle;Signal;HPM_P1;HPM_P2
2021/05/11 00:02:14;;;;;;;;;;;;;;;23.02;43.25;100462.53;5045849;28;98101;-79
2021/05/11 00:04:40;;;;;;;;;;;;;;;22.63;43.76;100454.38;5046955;27;97667;-78
2021/05/11 00:07:06;;;;;;;;;;;;;;;22.72;43.80;100457.19;5039959;27;97581;-78
2021/05/11 00:09:32;;;;;;;;;;;;;;;22.57;43.84;100460.31;5039001;27;96679;-79
2021/05/11 00:11:57;;;;;;;;;;;;;;;22.13;44.83;100449.94;5035152;27;98903;-80
2021/05/11 00:14:23;;;;;;;;;;;;;;;22.39;44.50;100450.31;5035590;28;97640;-80
2021/05/11 00:16:49;;;;;;;;;;;;;;;22.36;44.30;100451.47;5036502;28;97144;-80
2021/05/11 00:19:17;;;;;;;;;;;;;;;22.26;44.42;100434.41;5036855;27;96838;-78
2021/05/11 00:21:43;;;;;;;;;;;;;;;22.01;45.23;100437.56;5036801;28;99367;-81
2021/05/11 00:24:09;;;;;;;;;;;;;;;22.51;43.92;100442.00;5042663;27;98904;-79
2021/05/11 00:26:37;;;;;;;;;;;;;;;22.46;43.42;100441.56;5035178;27;98553;-80
2021/05/11 00:29:03;;;;;;;;;;;;;;;22.72;43.10;100451.81;5037698;28;97151;-79
2021/05/11 00:31:29;;;;;;;;;;;;;;;22.75;43.02;100454.28;5034825;27;99003;-79
2021/05/11 00:33:55;;;;;;;;;;;;;;;22.35;43.90;100444.38;5037899;27;97691;-79
2021/05/11 00:36:22;;;;;;;;;;;;;;;22.38;43.28;100436.03;5037638;27;98671;-80
2021/05/11 00:38:47;;;;;;;;;;;;;;;22.05;44.13;100439.03;5041879;27;96953;-80
2021/05/11 00:41:13;;;;;;;;;;;;;;;22.59;42.97;100433.22;5050749;27;99065;-79
2021/05/11 00:43:42;;;;;;;;;;;;;;;22.46;43.37;100422.72;5042549;27;97738;-79
2021/05/11 00:46:08;;;;;;;;;;;;;;;21.97;44.36;100428.09;5043769;27;96833;-79
2021/05/11 00:48:33;;;;;;;;;;;;;;;21.94;44.14;100429.16;5044810;28;97175;-79
2021/05/11 00:50:59;;;;;;;;;;;;;;;22.40;43.23;100425.97;5045984;27;98858;-79
2021/05/11 00:53:26;;;;;;;;;;;;;;;22.10;43.71;100417.94;5043850;27;97872;-78
2021/05/11 00:55:52;;;;;;;;;;;;;;;22.52;42.95;100419.47;5044319;27;96878;-78
2021/05/11 00:58:18;;;;;;;;;;;;;;;22.25;43.47;100411.22;5042996;28;96827;-79
2021/05/11 01:00:44;;;;;;;;;;;;;;;22.62;42.56;100414.97;5038171;28;99401;-79
2021/05/11 01:03:09;;;;;;;;;;;;;;;22.84;42.26;100423.81;5035053;27;98803;-79
2021/05/11 01:05:35;;;;;;;;;;;;;;;22.72;42.49;100422.19;5031324;28;97075;-81
2021/05/11 01:08:01;;;;;;;;;;;;;;;22.40;43.28;100419.72;5035419;27;96802;-79
2021/05/11 01:10:28;;;;;;;;;;;;;;;22.73;42.62;100418.53;5031211;27;98878;-79
2021/05/11 01:12:53;;;;;;;;;;;;;;;22.26;43.81;100407.50;5032158;27;98843;-78
2021/05/11 01:15:19;;;;;;;;;;;;;;;21.90;44.86;100416.13;5035926;27;96894;-79
2021/05/11 01:17:50;;;;;;;;;;;;;;;22.19;44.15;100400.97;5034736;27;96931;-79
2021/05/11 01:20:25;;;;;;;;;;;;;;;22.09;44.24;100408.16;5034032;27;98764;-79
2021/05/11 01:23:09;;;;;;;;;;;;;;;22.11;44.43;100400.81;5033564;27;98853;-79
2021/05/11 01:25:36;;;;;;;;;;;;;;;22.30;44.20;100402.72;5031233;27;96849;-79
2021/05/11 01:28:09;;;;;;;;;;;;;;;21.52;46.16;100395.25;5034286;28;96889;-79
2021/05/11 01:45:02;;;;;;;;;;;;;;;21.52;46.36;100381.81;5035354;27;97185;-79
2021/05/11 01:47:44;;;;;;;;;;;;;;;21.52;46.20;100374.63;5040882;27;96724;-78
2021/05/11 01:50:18;;;;;;;;;;;;;;;21.80;45.38;100371.19;5046368;27;96781;-79
2021/05/11 01:55:37;;;;;;;;;;;;;;;21.76;45.65;100364.41;5032234;27;98361;-78
2021/05/11 02:22:49;;;;;;;;;;;;;;;22.23;44.59;100356.66;5021402;28;96687;-80
2021/05/11 02:25:15;;;;;;;;;;;;;;;21.84;45.39;100353.81;5033115;27;99812;-79
2021/05/11 02:27:42;;;;;;;;;;;;;;;21.93;45.12;100353.97;5035144;27;101246;-79
2021/05/11 02:30:09;;;;;;;;;;;;;;;21.87;45.46;100356.22;5034220;27;96847;-79
2021/05/11 02:32:35;;;;;;;;;;;;;;;21.61;46.02;100349.59;5032985;27;97650;-79
2021/05/11 02:35:01;;;;;;;;;;;;;;;22.11;44.93;100338.94;5032539;27;99110;-80
2021/05/11 02:37:26;;;;;;;;;;;;;;;21.72;45.61;100344.16;5033819;28;97778;-80
2021/05/11 02:39:52;;;;;;;;;;;;;;;21.71;45.64;100347.81;5031818;27;97656;-80
2021/05/11 02:42:18;;;;;;;;;;;;;;;22.04;44.97;100343.16;5033180;27;97001;-79
2021/05/11 02:44:45;;;;;;;;;;;;;;;21.84;45.30;100345.75;5029512;27;98408;-79
2021/05/11 02:47:11;;;;;;;;;;;;;;;21.05;47.37;100333.84;5031996;28;98788;-79
2021/05/11 02:49:40;;;;;;;;;;;;;;;21.58;46.02;100344.50;5030822;27;97144;-79
2021/05/11 02:52:06;;;;;;;;;;;;;;;21.69;45.71;100344.41;5031860;27;96855;-79
2021/05/11 02:54:32;;;;;;;;;;;;;;;21.56;46.09;100351.84;5029261;27;98961;-79
2021/05/11 02:56:57;;;;;;;;;;;;;;;21.80;45.50;100351.50;5022561;27;100244;-80
2021/05/11 02:59:23;;;;;;;;;;;;;;;21.99;44.93;100354.31;5031084;27;97127;-80
2021/05/11 03:01:50;;;;;;;;;;;;;;;21.80;45.28;100351.50;5030865;27;97476;-79
2021/05/11 03:04:16;;;;;;;;;;;;;;;21.36;46.45;100355.41;5031101;28;99004;-80
2021/05/11 03:06:41;;;;;;;;;;;;;;;21.71;45.65;100353.19;5030124;28;98820;-80
2021/05/11 03:09:07;;;;;;;;;;;;;;;21.74;45.49;100355.59;5029662;27;96801;-80
2021/05/11 03:11:33;;;;;;;;;;;;;;;21.68;45.43;100347.22;5032773;27;96966;-79
2021/05/11 03:13:59;;;;;;;;;;;;;;;21.26;46.58;100346.44;5032983;27;98902;-80
2021/05/11 03:16:26;;;;;;;;;;;;;;;21.38;45.89;100350.75;5036228;27;98840;-80
2021/05/11 03:18:53;;;;;;;;;;;;;;;21.74;45.75;100352.06;5035795;27;96802;-81
2021/05/11 03:21:18;;;;;;;;;;;;;;;21.53;45.93;100343.22;5036344;27;96738;-80
2021/05/11 03:23:44;;;;;;;;;;;;;;;21.75;45.52;100341.16;5027364;27;97652;-81
2021/05/11 03:26:10;;;;;;;;;;;;;;;21.98;44.94;100338.31;5031304;28;98912;-80
2021/05/11 03:28:36;;;;;;;;;;;;;;;21.60;45.65;100333.59;5032840;27;96803;-80
2021/05/11 03:31:02;;;;;;;;;;;;;;;21.51;45.89;100335.28;5035645;27;96839;-79
2021/05/11 03:33:27;;;;;;;;;;;;;;;21.75;45.23;100343.88;5032128;27;99138;-79
2021/05/11 03:35:54;;;;;;;;;;;;;;;21.76;45.11;100340.19;5034954;27;98891;-79
2021/05/11 03:38:20;;;;;;;;;;;;;;;22.06;44.61;100347.38;5033808;27;98747;-79
2021/05/11 03:40:45;;;;;;;;;;;;;;;21.73;45.31;100347.66;5035155;27;97633;-78
2021/05/11 03:43:14;;;;;;;;;;;;;;;21.68;45.29;100339.16;5033947;27;98882;-77
2021/05/11 03:45:43;;;;;;;;;;;;;;;21.31;46.33;100334.31;5032435;28;99180;-79
2021/05/11 03:48:09;;;;;;;;;;;;;;;21.25;46.25;100326.78;5035368;27;97232;-79
2021/05/11 03:50:35;;;;;;;;;;;;;;;21.52;45.86;100336.97;5035574;27;96919;-79
2021/05/11 03:53:02;;;;;;;;;;;;;;;21.86;45.29;100340.22;5032889;27;99147;-79
2021/05/11 03:55:28;;;;;;;;;;;;;;;21.81;45.13;100332.56;5031197;27;98880;-79
2021/05/11 03:57:54;;;;;;;;;;;;;;;21.41;45.59;100327.16;5033737;27;97268;-79
2021/05/11 04:00:20;;;;;;;;;;;;;;;21.25;46.24;100323.25;5035080;28;96895;-79
2021/05/11 04:02:46;;;;;;;;;;;;;;;21.68;45.42;100323.88;5033263;28;98976;-79
2021/05/11 04:05:15;;;;;;;;;;;;;;;21.51;45.65;100313.75;5035334;27;98867;-79
2021/05/11 04:07:42;;;;;;;;;;;;;;;21.13;46.76;100317.06;5033180;28;97080;-79
2021/05/11 04:10:15;;;;;;;;;;;;;;;21.16;46.51;100313.28;5034578;27;96870;-79
2021/05/11 04:13:02;;;;;;;;;;;;;;;21.69;45.63;100313.97;5033018;27;99265;-79
2021/05/11 04:18:12;;;;;;;;;;;;;;;21.75;45.04;100308.06;5031666;27;99060;-80
2021/05/11 04:20:37;;;;;;;;;;;;;;;22.00;44.30;100310.28;5035335;27;96764;-79
2021/05/11 04:23:03;;;;;;;;;;;;;;;21.96;44.36;100306.19;5027434;28;98093;-80
2021/05/11 04:25:30;;;;;;;;;;;;;;;22.22;43.92;100301.97;5030177;28;98904;-79
2021/05/11 04:27:56;;;;;;;;;;;;;;;22.44;43.33;100303.56;5033964;27;96835;-79
2021/05/11 04:30:22;;;;;;;;;;;;;;;22.26;43.37;100294.47;5033760;27;97174;-79
2021/05/11 04:32:48;;;;;;;;;;;;;;;21.87;44.53;100297.03;5032300;27;99499;-79
2021/05/11 04:35:14;;;;;;;;;;;;;;;22.60;42.95;100282.31;5034312;27;98903;-79
2021/05/11 04:37:40;;;;;;;;;;;;;;;21.91;44.42;100278.81;5031944;28;96882;-79
2021/05/11 04:40:07;;;;;;;;;;;;;;;21.90;44.56;100274.41;5034709;27;96830;-80
2021/05/11 04:42:34;;;;;;;;;;;;;;;22.35;43.63;100280.19;5034459;27;98194;-80
2021/05/11 04:45:01;;;;;;;;;;;;;;;23.17;41.58;100275.13;5038662;27;98318;-80
2021/05/11 04:47:31;;;;;;;;;;;;;;;23.58;40.50;100267.66;5033710;27;96949;-80
2021/05/11 04:49:57;;;;;;;;;;;;;;;23.49;40.71;100271.25;5036458;28;97759;-79
2021/05/11 04:52:22;;;;;;;;;;;;;;;23.69;40.31;100262.06;5038543;27;98877;-80
2021/05/11 04:54:48;;;;;;;;;;;;;;;23.65;40.61;100264.22;5034399;27;98771;-80
2021/05/11 04:57:14;;;;;;;;;;;;;;;23.00;41.49;100251.66;5032583;27;97262;-80
2021/05/11 04:59:41;;;;;;;;;;;;;;;23.47;40.65;100260.59;5035705;27;96791;-78
2021/05/11 05:02:06;;;;;;;;;;;;;;;23.80;40.12;100269.97;5035000;27;98811;-79
2021/05/11 05:04:35;;;;;;;;;;;;;;;23.95;39.90;100268.47;5035412;28;98882;-79
2021/05/11 05:07:01;;;;;;;;;;;;;;;23.79;39.96;100262.84;5032960;28;97071;-79
2021/05/11 05:09:27;;;;;;;;;;;;;;;22.98;41.82;100259.03;5034896;27;96921;-78
2021/05/11 05:11:53;;;;;;;;;;;;;;;23.08;41.87;100256.31;5030260;28;99022;-79
2021/05/11 05:14:19;;;;;;;;;;;;;;;22.70;42.61;100259.91;5038197;27;97656;-78
2021/05/11 05:16:45;;;;;;;;;;;;;;;23.53;41.12;100269.94;5036225;27;96644;-80
2021/05/11 05:19:11;;;;;;;;;;;;;;;23.31;41.38;100266.59;5030119;27;97890;-78
2021/05/11 05:21:38;;;;;;;;;;;;;;;23.82;40.35;100270.66;5033567;27;98866;-80
2021/05/11 05:24:09;;;;;;;;;;;;;;;23.34;41.10;100263.63;5031997;27;98644;-80
2021/05/11 05:26:35;;;;;;;;;;;;;;;24.15;39.81;100251.13;5029395;28;99124;-78
2021/05/11 05:29:02;;;;;;;;;;;;;;;23.72;40.65;100249.13;5033904;27;96913;-79
2021/05/11 05:31:28;;;;;;;;;;;;;;;23.74;40.34;100236.34;5033293;28;99112;-79
2021/05/11 05:33:54;;;;;;;;;;;;;;;24.19;39.67;100230.94;5033554;28;98895;-79
2021/05/11 05:36:21;;;;;;;;;;;;;;;24.24;39.83;100233.19;5031959;28;97605;-80
2021/05/11 05:38:47;;;;;;;;;;;;;;;24.28;39.57;100229.19;5030964;27;97120;-80
2021/05/11 05:41:19;;;;;;;;;;;;;;;23.16;41.76;100218.72;5032216;28;99178;-80
2021/05/11 05:43:45;;;;;;;;;;;;;;;23.54;41.27;100217.72;5032562;28;97789;-80
2021/05/11 05:46:10;;;;;;;;;;;;;;;24.08;40.10;100216.81;5034533;28;97133;-79
2021/05/11 05:48:36;;;;;;;;;;;;;;;24.68;38.93;100217.84;5034419;27;96950;-78
2021/05/11 05:51:04;;;;;;;;;;;;;;;24.63;39.13;100212.09;5047321;27;99255;-78
2021/05/11 05:53:34;;;;;;;;;;;;;;;24.06;40.25;100203.47;5052517;27;97797;-78
2021/05/11 05:56:00;;;;;;;;;;;;;;;24.23;39.72;100193.69;5050439;27;97610;-79
2021/05/11 05:58:25;;;;;;;;;;;;;;;24.62;38.96;100195.03;5041688;28;97352;-79
2021/05/11 06:00:54;;;;;;;;;;;;;;;24.68;39.00;100193.53;5036445;27;98869;-80
2021/05/11 06:06:04;;;;;;;;;;;;;;;25.66;37.00;100187.72;5026747;28;96906;-79
2021/05/11 06:08:31;;;;;;;;;;;;;;;24.97;38.10;100194.13;5031808;27;97136;-80
2021/05/11 06:11:00;;;;;;;;;;;;;;;25.52;37.44;100201.84;5026056;27;99261;-81
2021/05/11 06:13:30;;;;;;;;;;;;;;;26.32;36.12;100196.81;5026697;27;98808;-79
2021/05/11 06:18:40;;;;;;;;;;;;;;;25.76;36.90;100201.09;5030366;27;97612;-80
2021/05/11 06:21:07;;;;;;;;;;;;;;;25.76;36.68;100201.94;5023820;27;99471;-78
2021/05/11 06:23:32;;;;;;;;;;;;;;;25.31;37.36;100195.97;5025374;28;99149;-79
2021/05/11 06:25:58;;;;;;;;;;;;;;;25.26;38.23;100192.94;5023086;27;98077;-79
2021/05/11 06:28:25;;;;;;;;;;;;;;;24.71;38.97;100185.13;5032821;27;97404;-80
2021/05/11 06:30:50;;;;;;;;;;;;;;;25.07;38.72;100193.16;5032790;27;98934;-80
2021/05/11 06:33:16;;;;;;;;;;;;;;;25.42;37.60;100195.69;5031250;27;100343;-80
2021/05/11 06:35:42;;;;;;;;;;;;;;;25.87;37.20;100198.06;5022998;28;98409;-80
2021/05/11 06:38:09;;;;;;;;;;;;;;;25.74;37.46;100198.53;5032239;27;98552;-80
2021/05/11 06:40:37;;;;;;;;;;;;;;;26.00;37.06;100203.00;5032403;27;99017;-80
2021/05/11 06:43:03;;;;;;;;;;;;;;;26.42;36.48;100211.88;5035602;27;99255;-80
2021/05/11 06:48:12;;;;;;;;;;;;;;;26.62;35.83;100219.66;5020118;28;97839;-79
2021/05/11 06:52:37;;;;;;;;;;;;;;;26.32;36.23;100211.19;5036543;27;102108;-80
2021/05/11 06:53:30;;;;;;;;;;;;;;;26.36;35.70;100207.13;5030198;27;97760;-79
2021/05/11 06:55:55;;;;;;;;;;;;;;;26.44;36.02;100203.59;5031342;27;97727;-80
2021/05/11 06:58:21;;;;;;;;;;;;;;;26.63;35.71;100199.69;5032539;27;97830;-79
2021/05/11 07:00:47;;;;;;;;;;;;;;;27.01;34.73;100196.25;5039209;27;98876;-81
2021/05/11 07:03:13;;;;;;;;;;;;;;;27.21;34.65;100188.56;5040185;27;98752;-79
2021/05/11 07:05:39;;;;;;;;;;;;;;;27.47;34.48;100188.31;5034070;27;97297;-80
2021/05/11 07:08:11;;;;;;;;;;;;;;;26.15;36.67;100196.75;5036074;27;98123;-78
2021/05/11 07:10:39;;;;;;;;;;;;;;;26.41;36.47;100206.63;5028554;27;99072;-79
2021/05/11 07:13:11;;;;;;;;;;;;;;;26.74;35.53;100197.47;5031934;27;99133;-79
2021/05/11 07:15:37;;;;;;;;;;;;;;;26.68;35.75;100200.00;5032659;27;96773;-79
2021/05/11 07:18:06;;;;;;;;;;;;;;;27.26;34.61;100180.75;5036170;27;97123;-79
2021/05/11 07:20:32;;;;;;;;;;;;;;;27.20;34.71;100182.31;5036710;27;98132;-80
2021/05/11 07:22:58;;;;;;;;;;;;;;;26.97;35.10;100184.09;5035145;27;98889;-79
2021/05/11 07:25:26;;;;;;;;;;;;;;;26.96;35.62;100183.22;5031111;27;98514;-80
2021/05/11 07:28:17;;;;;;;;;;;;;;;26.92;36.04;100181.03;5033372;27;97675;-79
2021/05/11 07:30:43;;;;;;;;;;;;;;;27.76;34.17;100193.97;5032780;27;99178;-79
2021/05/11 07:33:09;;;;;;;;;;;;;;;27.96;33.43;100206.03;5028244;27;98040;-80
2021/05/11 07:35:39;;;;;;;;;;;;;;;28.50;32.53;100219.59;5037668;28;96872;-80
2021/05/11 07:38:06;;;;;;;;;;;;;;;28.75;32.18;100231.97;5034580;27;96877;-80
2021/05/11 07:40:31;;;;;;;;;;;;;;;29.27;31.07;100229.25;5034555;27;98196;-80
2021/05/11 07:42:58;;;;;;;;;;;;;;;28.60;32.32;100236.53;5033491;28;98890;-79
2021/05/11 07:45:31;;;;;;;;;;;;;;;28.31;32.80;100231.81;5038157;28;97395;-80
2021/05/11 07:56:43;;;;;;;;;;;;;;;28.33;32.64;100201.75;5031914;28;96920;-78
2021/05/11 08:02:16;;;;;;;;;;;;;;;28.21;33.41;100203.22;5024728;28;97171;-81
2021/05/11 08:04:44;;;;;;;;;;;;;;;28.19;33.13;100188.94;5034725;28;99101;-81
2021/05/11 08:15:27;;;;;;;;;;;;;;;28.75;31.90;100179.50;5032981;27;96726;-80
2021/05/11 08:17:58;;;;;;;;;;;;;;;29.59;30.99;100189.94;5036847;27;97042;-81
2021/05/11 08:23:29;;;;;;;;;;;;;;;30.39;29.57;100176.13;5038433;28;99028;-79
2021/05/11 08:28:41;;;;;;;;;;;;;;;30.23;29.37;100170.97;5022035;27;96967;-79
2021/05/11 08:31:08;;;;;;;;;;;;;;;30.01;29.92;100178.28;5036697;27;97069;-79
2021/05/11 08:33:34;;;;;;;;;;;;;;;30.23;29.67;100184.59;5033180;28;102378;-79
2021/05/11 08:36:00;;;;;;;;;;;;;;;29.58;30.10;100177.34;5043778;28;98791;-80
2021/05/11 08:38:26;;;;;;;;;;;;;;;29.90;29.69;100156.97;5035586;27;97534;-80
2021/05/11 08:40:52;;;;;;;;;;;;;;;30.05;29.34;100146.06;5038220;27;97091;-80
2021/05/11 08:43:28;;;;;;;;;;;;;;;30.18;29.12;100145.34;5041510;27;97949;-80
2021/05/11 08:45:54;;;;;;;;;;;;;;;30.52;28.61;100142.75;5039339;27;98794;-81
2021/05/11 08:48:21;;;;;;;;;;;;;;;30.79;28.35;100144.59;5037555;27;98873;-82
2021/05/11 08:50:50;;;;;;;;;;;;;;;31.02;28.12;100143.50;5035480;28;97444;-81
2021/05/11 08:53:33;;;;;;;;;;;;;;;30.95;27.92;100138.00;5038792;27;97701;-81
2021/05/11 09:04:43;;;;;;;;;;;;;;;30.99;27.27;100142.00;4968650;28;97619;-80
2021/05/11 09:07:35;;;;;;;;;;;;;;;30.43;28.22;100136.56;5023775;27;99379;-82
2021/05/11 09:23:58;;;;;;;;;;;;;;;31.17;27.42;100136.91;5047037;28;97162;-80
2021/05/11 09:26:37;;;;;;;;;;;;;;;31.43;26.89;100140.81;5042649;28;98902;-78
2021/05/11 09:29:08;;;;;;;;;;;;;;;30.79;27.89;100133.69;5049054;27;97799;-78
2021/05/11 09:31:47;;;;;;;;;;;;;;;30.45;28.22;100125.47;5050787;28;96786;-80
2021/05/11 09:34:24;;;;;;;;;;;;;;;30.37;28.79;100118.28;5045046;28;96743;-80
2021/05/11 09:45:31;;;;;;;;;;;;;;;31.19;27.54;100115.69;5039390;28;96704;-82
2021/05/11 09:51:07;;;;;;;;;;;;;;;31.25;27.59;100106.69;5036151;28;98812;-81
2021/05/11 10:39:52;;;;;;;;;;;;;;;30.62;29.49;100049.69;5034077;27;97101;-81
2021/05/11 10:42:44;;;;;;;;;;;;;;;30.60;29.58;100049.03;5043070;28;97575;-80
2021/05/11 10:48:12;;;;;;;;;;;;;;;30.47;29.80;100055.22;5038633;27;98320;-79
2021/05/11 10:50:43;;;;;;;;;;;;;;;30.57;29.79;100044.84;5037406;27;96909;-85
2021/05/11 10:53:31;;;;;;;;;;;;;;;30.49;29.42;100054.03;5036775;27;97021;-80
2021/05/11 10:56:30;;;;;;;;;;;;;;;30.60;29.67;100051.75;5033357;27;99182;-79
2021/05/11 10:59:14;;;;;;;;;;;;;;;30.74;29.48;100048.91;5034309;27;99560;-82
2021/05/11 11:01:43;;;;;;;;;;;;;;;30.33;29.83;100046.09;5031551;27;97312;-81
2021/05/11 11:04:10;;;;;;;;;;;;;;;30.73;29.79;100040.94;5034377;27;97229;-80
2021/05/11 11:06:51;;;;;;;;;;;;;;;30.75;29.29;100036.13;5030696;27;97836;-79
2021/05/11 11:09:17;;;;;;;;;;;;;;;30.58;29.47;100040.25;5032365;27;99487;-80
2021/05/11 11:11:43;;;;;;;;;;;;;;;30.53;29.85;100035.38;5028876;28;96951;-82
2021/05/11 11:14:09;;;;;;;;;;;;;;;30.53;29.38;100031.78;5033421;27;97167;-80
2021/05/11 11:16:35;;;;;;;;;;;;;;;30.96;29.17;100032.47;5034765;28;97658;-80
2021/05/11 11:19:08;;;;;;;;;;;;;;;30.20;29.95;100026.94;5035946;27;99868;-80
2021/05/11 11:21:47;;;;;;;;;;;;;;;30.69;29.68;100032.31;5036025;27;97368;-79
2021/05/11 11:24:23;;;;;;;;;;;;;;;29.95;30.87;100026.53;5036041;28;96963;-79
2021/05/11 11:26:51;;;;;;;;;;;;;;;29.99;30.74;100024.28;5034080;28;98917;-80
2021/05/11 11:29:17;;;;;;;;;;;;;;;30.17;30.00;100026.50;5035771;28;98953;-79
2021/05/11 11:31:43;;;;;;;;;;;;;;;29.66;31.00;100021.22;5039763;28;97028;-78
2021/05/11 11:34:18;;;;;;;;;;;;;;;29.93;30.55;100016.91;5052949;27;96998;-80
2021/05/11 11:36:47;;;;;;;;;;;;;;;30.56;29.91;100013.16;5054211;28;97877;-79
2021/05/11 11:39:19;;;;;;;;;;;;;;;29.83;31.04;100019.06;5055425;27;98043;-81
2021/05/11 11:41:54;;;;;;;;;;;;;;;30.29;29.54;100023.03;5041717;27;97079;-81
2021/05/11 11:44:21;;;;;;;;;;;;;;;30.65;29.25;100025.59;5040029;28;97191;-80
2021/05/11 11:46:58;;;;;;;;;;;;;;;30.72;29.34;100017.47;5046611;28;98193;-80
2021/05/11 11:49:27;;;;;;;;;;;;;;;31.53;28.11;100007.47;5045618;27;98036;-80
2021/05/11 11:51:58;;;;;;;;;;;;;;;31.83;28.09;100011.53;5046410;27;96868;-81
2021/05/11 11:54:31;;;;;;;;;;;;;;;31.43;28.44;100002.41;5044715;27;96762;-82
2021/05/11 11:59:53;;;;;;;;;;;;;;;32.67;26.51;100005.38;5042583;28;96988;-82
2021/05/11 12:02:19;;;;;;;;;;;;;;;32.96;26.35;100009.44;5037321;28;96836;-82
2021/05/11 12:04:47;;;;;;;;;;;;;;;33.30;25.57;100006.38;5043180;27;98421;-82
2021/05/11 12:07:15;;;;;;;;;;;;;;;33.08;25.79;99999.53;5047863;27;97908;-80
2021/05/11 12:09:42;;;;;;;;;;;;;;;33.07;25.49;100003.31;5044048;27;100868;-80
2021/05/11 12:12:10;;;;;;;;;;;;;;;33.33;25.28;100000.47;5044172;27;97326;-78
2021/05/11 12:14:37;;;;;;;;;;;;;;;33.67;25.05;99993.69;5038924;28;97777;-79
2021/05/11 12:17:03;;;;;;;;;;;;;;;34.30;24.41;99994.47;5048385;27;98922;-82
2021/05/11 12:19:30;;;;;;;;;;;;;;;34.13;24.13;99990.59;5052099;27;97779;-83
2021/05/11 12:21:59;;;;;;;;;;;;;;;34.14;24.50;100000.47;5051135;27;96669;-82
2021/05/11 12:24:26;;;;;;;;;;;;;;;34.03;24.48;99998.47;5052231;28;97131;-82
2021/05/11 12:26:52;;;;;;;;;;;;;;;33.92;24.68;99991.84;5039924;28;98204;-82
2021/05/11 12:29:19;;;;;;;;;;;;;;;34.27;24.36;99985.81;5046019;27;99101;-81
2021/05/11 12:31:46;;;;;;;;;;;;;;;34.40;24.11;99989.28;5044526;28;96808;-83
2021/05/11 12:34:13;;;;;;;;;;;;;;;34.20;23.88;99980.38;5043314;27;97161;-82
2021/05/11 12:36:45;;;;;;;;;;;;;;;34.32;24.02;99992.34;5041044;27;96698;-82
2021/05/11 12:39:19;;;;;;;;;;;;;;;33.91;25.17;99989.31;5038144;27;97688;-83
2021/05/11 12:41:45;;;;;;;;;;;;;;;33.42;25.36;99990.91;5044154;27;96696;-82
2021/05/11 12:44:26;;;;;;;;;;;;;;;33.57;25.04;99985.97;5041086;27;96992;-83
2021/05/11 12:46:57;;;;;;;;;;;;;;;33.96;24.75;99978.50;5043801;27;98967;-82
2021/05/11 12:49:23;;;;;;;;;;;;;;;34.39;24.19;99973.91;5043642;28;97806;-84
2021/05/11 12:51:50;;;;;;;;;;;;;;;34.50;24.42;99972.28;5044333;28;96899;-81
2021/05/11 12:54:26;;;;;;;;;;;;;;;34.30;24.06;99979.91;5040937;27;96813;-81
2021/05/11 12:57:05;;;;;;;;;;;;;;;34.09;24.23;99972.91;5052050;27;97847;-82
2021/05/11 12:59:37;;;;;;;;;;;;;;;33.52;24.51;99984.97;5049061;27;97756;-83
2021/05/11 13:02:09;;;;;;;;;;;;;;;33.68;24.43;99972.59;5040561;28;97195;-81
2021/05/11 13:21:38;;;;;;;;;;;;;;;35.12;23.14;99967.50;5037624;27;96933;-82
2021/05/11 13:26:53;;;;;;;;;;;;;;;36.11;21.32;99953.06;5048024;28;96748;-82
2021/05/11 13:29:30;;;;;;;;;;;;;;;35.62;21.88;99948.84;5042317;28;100176;-82
2021/05/11 13:31:59;;;;;;;;;;;;;;;35.78;21.91;99939.91;5044915;27;98996;-82
2021/05/11 13:34:25;;;;;;;;;;;;;;;35.89;21.69;99939.09;5041854;27;96900;-81
2021/05/11 13:36:51;;;;;;;;;;;;;;;36.83;20.83;99947.25;5040219;28;96867;-81
2021/05/11 13:39:17;;;;;;;;;;;;;;;37.03;20.82;99944.88;5043451;27;97930;-82
2021/05/11 13:41:44;;;;;;;;;;;;;;;37.45;20.01;99929.75;5042515;27;101729;-81
2021/05/11 13:44:11;;;;;;;;;;;;;;;37.78;19.58;99936.38;5038735;28;96858;-81
2021/05/11 13:46:37;;;;;;;;;;;;;;;35.77;21.91;99918.19;5035430;27;98680;-78
2021/05/11 13:49:03;;;;;;;;;;;;;;;36.80;20.75;99926.56;5033094;27;97789;-78
2021/05/11 13:51:29;;;;;;;;;;;;;;;36.92;19.99;99930.09;5034389;28;99172;-80
2021/05/11 13:53:57;;;;;;;;;;;;;;;37.51;19.51;99925.97;5038035;27;96917;-81
2021/05/11 13:56:41;;;;;;;;;;;;;;;37.66;19.52;99916.31;5033544;27;96870;-81
2021/05/11 14:04:30;;;;;;;;;;;;;;;38.48;18.59;99920.06;5035321;27;96719;-79
2021/05/11 14:06:57;;;;;;;;;;;;;;;37.56;19.32;99918.88;5038230;27;97634;-80
2021/05/11 14:09:23;;;;;;;;;;;;;;;37.71;19.16;99917.25;5041666;28;97872;-82
2021/05/11 14:11:49;;;;;;;;;;;;;;;38.61;18.26;99925.19;5038756;27;97566;-80
2021/05/11 14:14:15;;;;;;;;;;;;;;;39.96;17.34;99914.97;5039644;27;96844;-80
2021/05/11 14:16:42;;;;;;;;;;;;;;;40.84;15.98;99921.50;5036242;27;96885;-81
2021/05/11 14:19:09;;;;;;;;;;;;;;;40.53;16.67;99915.00;5041032;27;99154;-82
2021/05/11 14:21:34;;;;;;;;;;;;;;;41.11;15.84;99920.50;5032730;27;98927;-81
2021/05/11 14:24:02;;;;;;;;;;;;;;;42.85;14.36;99918.06;5034693;27;96934;-83
2021/05/11 14:26:28;;;;;;;;;;;;;;;43.45;13.93;99902.94;5035555;27;97232;-82
2021/05/11 14:28:54;;;;;;;;;;;;;;;43.81;13.74;99900.66;5043355;27;99185;-81
2021/05/11 14:31:20;;;;;;;;;;;;;;;44.92;12.80;99909.69;5036804;27;98739;-81
2021/05/11 14:33:46;;;;;;;;;;;;;;;44.76;12.90;99914.66;5032687;27;98812;-82
2021/05/11 14:36:13;;;;;;;;;;;;;;;46.49;11.78;99900.56;5033760;27;97510;-82
2021/05/11 14:38:39;;;;;;;;;;;;;;;46.49;12.37;99901.38;5030571;27;98454;-81
2021/05/11 14:41:06;;;;;;;;;;;;;;;47.58;10.86;99902.25;5024833;27;99763;-81
2021/05/11 14:43:32;;;;;;;;;;;;;;;48.02;10.63;99893.78;5020987;27;98654;-80
2021/05/11 14:45:59;;;;;;;;;;;;;;;47.21;11.10;99901.47;5023431;27;98749;-81
2021/05/11 14:48:24;;;;;;;;;;;;;;;46.30;11.63;99897.88;5025294;27;99063;-81
2021/05/11 14:50:50;;;;;;;;;;;;;;;46.82;11.51;99907.66;5028926;27;98417;-81
2021/05/11 14:53:17;;;;;;;;;;;;;;;45.85;11.97;99903.22;5024971;27;97945;-81
2021/05/11 14:55:43;;;;;;;;;;;;;;;42.34;15.50;99889.69;5025689;27;98971;-79
2021/05/11 14:58:09;;;;;;;;;;;;;;;40.26;17.81;99888.56;5036931;27;98882;-80
2021/05/11 15:00:34;;;;;;;;;;;;;;;39.03;19.51;99885.94;5037113;27;99171;-79
2021/05/11 15:03:00;;;;;;;;;;;;;;;38.06;20.44;99885.81;5042885;27;97288;-79
2021/05/11 15:05:26;;;;;;;;;;;;;;;37.31;22.00;99883.47;5048199;27;96701;-79
2021/05/11 15:07:53;;;;;;;;;;;;;;;36.48;22.79;99886.81;5039278;27;98893;-79
2021/05/11 15:10:20;;;;;;;;;;;;;;;35.57;24.26;99885.53;5040868;28;97757;-81
2021/05/11 15:12:49;;;;;;;;;;;;;;;35.21;25.00;99891.19;5028494;27;98163;-79
2021/05/11 15:15:18;;;;;;;;;;;;;;;35.30;25.46;99889.78;5029517;28;97180;-79
2021/05/11 15:18:01;;;;;;;;;;;;;;;35.05;25.69;99882.50;5029503;27;98978;-78
2021/05/11 15:20:27;;;;;;;;;;;;;;;34.38;26.79;99897.34;5028801;28;99652;-79
2021/05/11 15:22:53;;;;;;;;;;;;;;;34.30;26.58;99889.41;5027279;27;97060;-77
2021/05/11 15:25:21;;;;;;;;;;;;;;;34.11;27.07;99895.94;5030801;27;99328;-78
2021/05/11 15:27:47;;;;;;;;;;;;;;;34.85;26.26;99903.94;5029129;27;99358;-79
2021/05/11 15:30:13;;;;;;;;;;;;;;;34.87;25.90;99895.44;5034119;28;98850;-79
2021/05/11 15:32:40;;;;;;;;;;;;;;;34.31;26.84;99900.16;5032592;27;98909;-79
2021/05/11 15:35:07;;;;;;;;;;;;;;;33.01;28.82;99905.66;5030663;27;97339;-78
2021/05/11 15:37:32;;;;;;;;;;;;;;;33.63;28.07;99904.78;5032665;27;98918;-79
2021/05/11 15:39:58;;;;;;;;;;;;;;;33.34;28.54;99914.53;5023116;27;98953;-80
2021/05/11 15:42:25;;;;;;;;;;;;;;;33.23;28.62;99909.75;5027771;27;98379;-81
2021/05/11 15:44:51;;;;;;;;;;;;;;;33.54;28.25;99909.69;5031531;27;96983;-80
2021/05/11 15:47:17;;;;;;;;;;;;;;;33.40;28.33;99907.31;5030646;27;99616;-79
2021/05/11 15:49:43;;;;;;;;;;;;;;;32.49;29.59;99909.47;5033107;27;98961;-78
2021/05/11 15:52:09;;;;;;;;;;;;;;;31.74;31.11;99906.25;5026063;28;97415;-79
2021/05/11 15:54:34;;;;;;;;;;;;;;;31.53;31.65;99909.16;5033754;27;98132;-79